createdAt,value
2023-08-02T00:02:02.793Z,19.12
2023-08-02T00:04:29.300Z,19.14
2023-08-02T00:06:55.799Z,19.19
2023-08-02T00:09:22.291Z,19.12
2023-08-02T00:11:51.930Z,19.23
2023-08-02T00:14:18.450Z,19.20
2023-08-02T00:16:45.321Z,19.17
2023-08-02T00:19:14.523Z,19.18
2023-08-02T00:21:41.029Z,19.08
2023-08-02T00:24:08.017Z,19.09
2023-08-02T00:26:34.580Z,19.18
2023-08-02T00:29:01.037Z,19.19
2023-08-02T00:31:27.567Z,19.18
2023-08-02T00:33:53.996Z,19.21
2023-08-02T00:36:20.488Z,19.18
2023-08-02T00:38:46.920Z,19.16
2023-08-02T00:41:13.696Z,19.05
2023-08-02T00:43:40.764Z,19.10
2023-08-02T00:46:11.907Z,19.04
2023-08-02T00:48:39.204Z,19.14
2023-08-02T00:51:09.092Z,19.05
2023-08-02T00:53:35.978Z,19.13
2023-08-02T00:56:03.256Z,19.20
2023-08-02T00:58:29.691Z,19.02
2023-08-02T01:00:56.193Z,19.14
2023-08-02T01:03:22.724Z,19.12
2023-08-02T01:05:59.744Z,19.12
2023-08-02T01:08:34.547Z,19.09
2023-08-02T01:11:09.281Z,19.08
2023-08-02T01:13:40.180Z,19.05
2023-08-02T01:16:08.577Z,19.05
2023-08-02T01:18:35.111Z,18.99
2023-08-02T01:21:01.519Z,18.99
2023-08-02T01:23:27.974Z,18.92
2023-08-02T01:25:56.406Z,18.86
2023-08-02T01:28:24.879Z,19.00
2023-08-02T01:30:53.349Z,18.81
2023-08-02T01:33:21.434Z,18.60
2023-08-02T01:35:47.881Z,18.71
2023-08-02T01:38:14.730Z,18.86
2023-08-02T01:40:41.224Z,18.83
2023-08-02T01:43:07.678Z,18.89
2023-08-02T01:45:34.165Z,18.80
2023-08-02T01:48:02.546Z,18.89
2023-08-02T01:50:30.044Z,18.89
2023-08-02T01:52:56.691Z,18.76
2023-08-02T01:55:23.103Z,18.76
2023-08-02T01:57:49.552Z,18.68
2023-08-02T02:00:16.099Z,18.75
2023-08-02T02:02:42.648Z,18.80
2023-08-02T02:05:09.399Z,18.74
2023-08-02T02:07:35.907Z,18.66
2023-08-02T02:10:02.340Z,18.64
2023-08-02T02:12:28.746Z,18.61
2023-08-02T02:14:55.278Z,18.56
2023-08-02T02:17:21.931Z,18.45
2023-08-02T02:19:48.433Z,18.40
2023-08-02T02:22:14.866Z,18.55
2023-08-02T02:24:41.315Z,18.42
2023-08-02T02:27:07.793Z,18.04
2023-08-02T02:29:34.246Z,18.17
2023-08-02T02:32:00.789Z,18.32
2023-08-02T02:34:27.230Z,18.34
2023-08-02T02:36:53.651Z,18.28
2023-08-02T02:39:20.059Z,18.31
2023-08-02T02:41:46.469Z,18.42
2023-08-02T02:44:12.925Z,18.34
2023-08-02T02:46:39.598Z,18.40
2023-08-02T02:49:06.126Z,17.79
2023-08-02T02:51:32.606Z,18.12
2023-08-02T02:53:59.069Z,18.27
2023-08-02T02:56:25.534Z,18.34
2023-08-02T02:58:51.968Z,18.34
2023-08-02T03:01:18.455Z,18.25
2023-08-02T03:03:44.915Z,18.38
2023-08-02T03:06:11.418Z,18.40
2023-08-02T03:08:37.892Z,18.47
2023-08-02T03:11:04.635Z,18.48
2023-08-02T03:13:31.056Z,18.67
2023-08-02T03:15:57.480Z,18.66
2023-08-02T03:18:23.868Z,18.81
2023-08-02T03:20:50.332Z,18.67
2023-08-02T03:23:16.773Z,18.68
2023-08-02T03:25:43.207Z,18.69
2023-08-02T03:28:09.605Z,18.63
2023-08-02T03:30:36.071Z,18.69
2023-08-02T03:33:02.518Z,18.76
2023-08-02T03:35:28.952Z,18.74
2023-08-02T03:37:55.363Z,18.77
2023-08-02T03:40:21.810Z,18.69
2023-08-02T03:42:48.275Z,18.82
2023-08-02T03:45:14.846Z,18.65
2023-08-02T03:47:41.383Z,18.72
2023-08-02T03:50:08.143Z,18.79
2023-08-02T03:52:34.651Z,18.83
2023-08-02T03:55:01.255Z,18.82
2023-08-02T03:57:27.693Z,18.84
2023-08-02T03:59:54.109Z,18.84
2023-08-02T04:02:20.522Z,18.86
2023-08-02T04:04:46.953Z,18.79
2023-08-02T04:07:13.444Z,18.87
2023-08-02T04:09:39.859Z,18.90
2023-08-02T04:12:06.787Z,18.94
2023-08-02T04:14:33.436Z,18.94
2023-08-02T04:16:59.852Z,18.90
2023-08-02T04:19:27.076Z,18.84
2023-08-02T04:21:53.492Z,18.84
2023-08-02T04:24:20.044Z,18.91
2023-08-02T04:26:46.548Z,18.91
2023-08-02T04:29:13.088Z,18.88
2023-08-02T04:31:39.537Z,18.89
2023-08-02T04:34:06.632Z,18.90
2023-08-02T04:36:33.185Z,18.84
2023-08-02T04:39:03.254Z,18.69
2023-08-02T04:41:29.671Z,18.85
2023-08-02T04:43:56.123Z,18.75
2023-08-02T04:46:23.192Z,18.78
2023-08-02T04:48:49.862Z,18.72
2023-08-02T04:51:16.258Z,18.57
2023-08-02T04:53:43.862Z,18.58
2023-08-02T04:56:10.849Z,18.61
2023-08-02T04:58:37.306Z,18.62
2023-08-02T05:01:05.823Z,18.43
2023-08-02T05:03:33.083Z,18.60
2023-08-02T05:06:04.603Z,18.52
2023-08-02T05:08:36.237Z,18.55
2023-08-02T05:11:05.563Z,18.65
2023-08-02T05:13:32.143Z,18.60
2023-08-02T05:15:58.931Z,18.52
2023-08-02T05:18:25.510Z,18.57
2023-08-02T05:20:53.829Z,18.44
2023-08-02T05:23:20.341Z,18.49
2023-08-02T05:25:47.055Z,18.42
2023-08-02T05:28:13.468Z,18.57
2023-08-02T05:30:40.000Z,18.48
2023-08-02T05:33:07.740Z,18.50
2023-08-02T05:35:34.447Z,18.51
2023-08-02T05:38:00.868Z,18.49
2023-08-02T05:40:27.269Z,18.45
2023-08-02T05:42:54.279Z,18.38
2023-08-02T05:45:20.727Z,18.48
2023-08-02T05:47:50.365Z,18.33
2023-08-02T05:50:16.846Z,18.39
2023-08-02T05:52:43.340Z,18.20
2023-08-02T05:55:12.817Z,17.91
2023-08-02T05:57:39.747Z,17.75
2023-08-02T06:00:08.219Z,17.80
2023-08-02T06:02:34.854Z,17.73
2023-08-02T06:05:01.361Z,17.63
2023-08-02T06:07:27.764Z,17.72
2023-08-02T06:09:54.224Z,17.62
2023-08-02T06:12:20.683Z,17.59
2023-08-02T06:14:47.117Z,17.52
2023-08-02T06:17:13.608Z,17.57
2023-08-02T06:19:40.300Z,17.65
2023-08-02T06:22:06.914Z,17.60
2023-08-02T06:24:33.474Z,17.70
2023-08-02T06:27:00.015Z,17.61
2023-08-02T06:29:26.574Z,17.70
2023-08-02T06:31:53.005Z,17.47
2023-08-02T06:34:19.415Z,17.55
2023-08-02T06:36:45.941Z,17.57
2023-08-02T06:39:13.017Z,17.65
2023-08-02T06:41:39.655Z,17.78
2023-08-02T06:44:06.704Z,17.57
2023-08-02T06:46:34.318Z,17.73
2023-08-02T06:49:01.083Z,17.45
2023-08-02T06:51:27.585Z,17.55
2023-08-02T06:53:58.728Z,17.50
2023-08-02T06:56:26.249Z,17.44
2023-08-02T06:58:52.773Z,17.47
2023-08-02T07:01:23.750Z,17.46
2023-08-02T07:03:50.800Z,17.61
2023-08-02T07:06:19.608Z,17.60
2023-08-02T07:08:46.833Z,17.61
2023-08-02T07:11:26.157Z,17.65
2023-08-02T07:13:57.155Z,17.45
2023-08-02T07:16:23.829Z,17.51
2023-08-02T07:18:50.427Z,17.51
2023-08-02T07:21:16.981Z,17.76
2023-08-02T07:23:43.516Z,18.09
2023-08-02T07:26:10.777Z,17.87
2023-08-02T07:28:37.358Z,17.95
2023-08-02T07:31:13.092Z,18.11
2023-08-02T07:33:40.744Z,17.90
2023-08-02T07:36:19.127Z,18.08
2023-08-02T07:38:46.609Z,17.99
2023-08-02T07:41:13.827Z,18.03
2023-08-02T07:43:40.578Z,17.92
2023-08-02T07:46:15.786Z,17.91
2023-08-02T07:48:42.432Z,18.14
2023-08-02T07:51:08.969Z,18.23
2023-08-02T07:53:37.519Z,18.52
2023-08-02T07:56:05.168Z,18.40
2023-08-02T07:58:31.927Z,18.52
2023-08-02T08:01:04.780Z,18.51
2023-08-02T08:03:31.297Z,18.40
2023-08-02T08:05:57.845Z,18.73
2023-08-02T08:08:24.369Z,18.73
2023-08-02T08:10:54.128Z,18.81
2023-08-02T08:13:20.708Z,18.87
2023-08-02T08:15:48.621Z,18.78
2023-08-02T08:18:15.201Z,18.60
2023-08-02T08:20:41.769Z,18.58
2023-08-02T08:23:08.402Z,18.55
2023-08-02T08:25:35.027Z,18.57
2023-08-02T08:28:01.634Z,18.55
2023-08-02T08:30:28.226Z,18.60
2023-08-02T08:32:54.898Z,18.76
2023-08-02T08:35:22.475Z,18.66
2023-08-02T08:37:50.538Z,18.65
2023-08-02T08:40:21.248Z,18.75
2023-08-02T08:42:55.027Z,18.71
2023-08-02T08:45:23.667Z,18.88
2023-08-02T08:47:52.202Z,18.86
2023-08-02T08:50:20.572Z,18.70
2023-08-02T08:52:48.661Z,18.83
2023-08-02T08:55:16.708Z,18.79
2023-08-02T08:57:46.517Z,18.93
2023-08-02T09:00:15.173Z,18.93
2023-08-02T09:02:43.741Z,18.87
2023-08-02T09:05:11.253Z,19.05
2023-08-02T09:07:37.956Z,18.98
2023-08-02T09:10:04.840Z,19.18
2023-08-02T09:12:43.914Z,19.06
2023-08-02T09:15:10.613Z,19.12
2023-08-02T09:17:49.476Z,18.96
2023-08-02T09:20:17.641Z,19.17
2023-08-02T09:22:44.443Z,19.20
2023-08-02T09:25:28.681Z,19.16
2023-08-02T09:27:57.966Z,19.27
2023-08-02T09:30:34.119Z,19.31
2023-08-02T09:33:02.316Z,19.37
2023-08-02T09:35:31.962Z,19.39
2023-08-02T09:37:58.580Z,19.45
2023-08-02T09:40:49.451Z,19.43
2023-08-02T09:43:23.656Z,19.59
2023-08-02T09:45:50.288Z,19.70
2023-08-02T09:48:16.870Z,19.64
2023-08-02T09:50:57.005Z,19.65
2023-08-02T09:53:26.015Z,19.66
2023-08-02T09:55:54.192Z,19.76
2023-08-02T09:58:21.834Z,19.83
2023-08-02T10:00:49.167Z,19.88
2023-08-02T10:03:25.322Z,19.81
2023-08-02T10:05:54.836Z,19.77
2023-08-02T10:08:22.306Z,19.81
2023-08-02T10:10:49.392Z,19.89
2023-08-02T10:13:22.532Z,19.99
2023-08-02T10:15:50.708Z,19.90
2023-08-02T10:18:18.567Z,20.17
2023-08-02T10:20:47.286Z,20.13
2023-08-02T10:23:14.040Z,20.34
2023-08-02T10:25:43.023Z,20.41
2023-08-02T10:28:10.778Z,20.47
2023-08-02T10:30:37.948Z,20.44
2023-08-02T10:33:17.054Z,20.36
2023-08-02T10:36:06.650Z,20.46
2023-08-02T10:38:46.022Z,20.52
2023-08-02T10:41:17.904Z,20.51
2023-08-02T10:43:54.312Z,20.69
2023-08-02T10:46:26.828Z,20.80
2023-08-02T10:48:53.990Z,20.79
2023-08-02T10:51:31.496Z,20.75
2023-08-02T10:54:10.024Z,20.85
2023-08-02T10:56:52.207Z,20.83
2023-08-02T10:59:24.457Z,21.30
2023-08-02T11:02:08.327Z,21.12
2023-08-02T11:04:36.399Z,20.98
2023-08-02T11:07:15.251Z,21.03
2023-08-02T11:09:42.108Z,21.18
2023-08-02T11:12:16.500Z,21.19
2023-08-02T11:14:45.069Z,21.20
2023-08-02T11:17:14.317Z,21.10
2023-08-02T11:20:05.826Z,21.08
2023-08-02T11:22:40.642Z,21.14
2023-08-02T11:25:10.678Z,21.28
2023-08-02T11:30:09.799Z,21.73
2023-08-02T11:32:47.302Z,21.55
2023-08-02T11:35:20.704Z,21.57
2023-08-02T11:37:47.699Z,21.59
2023-08-02T11:42:48.956Z,21.64
2023-08-02T11:45:36.977Z,21.65
2023-08-02T11:48:11.089Z,21.61
2023-08-02T11:50:40.031Z,21.85
2023-08-02T11:53:09.071Z,21.71
2023-08-02T11:55:40.180Z,21.73
2023-08-02T11:58:08.125Z,21.85
2023-08-02T12:00:35.553Z,21.76
2023-08-02T12:03:13.710Z,21.86
2023-08-02T12:05:41.870Z,21.94
2023-08-02T12:08:20.587Z,21.96
2023-08-02T12:10:48.689Z,22.17
2023-08-02T12:13:17.251Z,22.52
2023-08-02T12:16:03.398Z,22.38
2023-08-02T12:18:29.985Z,22.62
2023-08-02T12:20:56.845Z,22.51
2023-08-02T12:23:34.244Z,22.71
2023-08-02T12:26:01.405Z,22.90
2023-08-02T12:28:46.285Z,23.21
2023-08-02T12:31:13.968Z,23.17
2023-08-02T12:33:40.576Z,23.29
2023-08-02T12:36:07.645Z,23.48
2023-08-02T12:38:34.249Z,23.71
2023-08-02T12:41:03.254Z,23.99
2023-08-02T12:43:30.167Z,24.07
2023-08-02T12:45:56.772Z,24.01
2023-08-02T12:48:23.434Z,23.70
2023-08-02T12:50:50.041Z,23.66
2023-08-02T12:53:16.543Z,23.58
2023-08-02T12:55:43.076Z,23.77
2023-08-02T12:58:09.627Z,23.77
2023-08-02T13:00:36.281Z,23.77
2023-08-02T13:03:02.936Z,23.71
2023-08-02T13:05:29.522Z,23.51
2023-08-02T13:07:56.254Z,23.32
2023-08-02T13:10:22.888Z,23.31
2023-08-02T13:12:49.511Z,23.28
2023-08-02T13:15:16.218Z,23.28
2023-08-02T13:17:43.661Z,23.23
2023-08-02T13:20:11.062Z,23.03
2023-08-02T13:22:37.727Z,22.95
2023-08-02T13:25:04.772Z,23.02
2023-08-02T13:27:34.229Z,22.92
2023-08-02T13:30:01.390Z,22.86
2023-08-02T13:32:29.979Z,22.81
2023-08-02T13:34:59.033Z,22.99
2023-08-02T13:37:26.434Z,23.25
2023-08-02T13:39:53.119Z,23.26
2023-08-02T13:42:19.655Z,23.44
2023-08-02T13:44:46.158Z,23.51
2023-08-02T13:47:12.687Z,23.48
2023-08-02T13:49:39.181Z,23.51
2023-08-02T13:52:06.328Z,23.70
2023-08-02T13:54:32.850Z,23.68
2023-08-02T13:56:59.424Z,23.43
2023-08-02T13:59:25.957Z,23.52
2023-08-02T14:01:52.504Z,23.25
2023-08-02T14:04:19.613Z,23.32
2023-08-02T14:06:46.383Z,23.03
2023-08-02T14:09:13.332Z,22.75
2023-08-02T14:11:40.010Z,22.77
2023-08-02T14:14:09.831Z,22.55
2023-08-02T14:16:36.999Z,22.41
2023-08-02T14:19:04.393Z,22.34
2023-08-02T14:21:31.710Z,22.16
2023-08-02T14:23:58.616Z,22.16
2023-08-02T14:26:27.863Z,22.37
2023-08-02T14:28:54.950Z,22.24
2023-08-02T14:31:22.017Z,22.01
2023-08-02T14:33:48.672Z,21.81
2023-08-02T14:36:15.267Z,21.79
2023-08-02T14:38:41.803Z,21.51
2023-08-02T14:41:08.359Z,21.22
2023-08-02T14:43:34.927Z,20.68
2023-08-02T14:46:03.978Z,20.49
2023-08-02T14:48:30.999Z,20.26
2023-08-02T14:50:58.130Z,20.27
2023-08-02T14:53:27.351Z,20.03
2023-08-02T14:55:53.936Z,20.08
2023-08-02T14:58:20.524Z,20.03
2023-08-02T15:00:47.178Z,20.30
2023-08-02T15:03:13.824Z,20.32
2023-08-02T15:05:42.231Z,20.25
2023-08-02T15:08:09.216Z,20.29
2023-08-02T15:10:35.790Z,20.40
2023-08-02T15:13:02.405Z,20.16
2023-08-02T15:15:28.939Z,20.03
2023-08-02T15:17:55.565Z,20.15
2023-08-02T15:20:22.194Z,20.03
2023-08-02T15:22:48.727Z,20.13
2023-08-02T15:25:15.234Z,20.18
2023-08-02T15:27:41.853Z,20.20
2023-08-02T15:30:08.946Z,20.35
2023-08-02T15:32:35.501Z,20.35
2023-08-02T15:35:02.266Z,20.20
2023-08-02T15:37:28.802Z,20.29
2023-08-02T15:39:55.322Z,20.12
2023-08-02T15:42:25.280Z,20.14
2023-08-02T15:44:52.934Z,20.29
2023-08-02T15:47:19.515Z,20.29
2023-08-02T15:49:46.193Z,20.64
2023-08-02T15:52:12.814Z,20.70
2023-08-02T15:54:39.333Z,20.92
2023-08-02T15:57:06.326Z,21.25
2023-08-02T15:59:32.831Z,21.25
2023-08-02T16:01:59.367Z,21.27
2023-08-02T16:04:26.371Z,21.45
2023-08-02T16:06:55.640Z,21.39
2023-08-02T16:09:22.514Z,21.53
2023-08-02T16:11:49.103Z,21.53
2023-08-02T16:14:15.565Z,21.50
2023-08-02T16:16:42.725Z,21.42
2023-08-02T16:19:10.838Z,21.53
2023-08-02T16:21:37.384Z,21.67
2023-08-02T16:24:04.068Z,21.74
2023-08-02T16:26:30.554Z,21.84
2023-08-02T16:28:57.049Z,21.82
2023-08-02T16:31:23.514Z,21.92
2023-08-02T16:33:50.089Z,21.97
2023-08-02T16:36:16.601Z,22.10
2023-08-02T16:38:43.076Z,22.22
2023-08-02T16:41:09.513Z,22.28
2023-08-02T16:43:36.011Z,22.26
2023-08-02T16:46:02.526Z,22.35
2023-08-02T16:48:29.057Z,22.30
2023-08-02T16:50:55.478Z,22.35
2023-08-02T16:53:22.154Z,22.38
2023-08-02T16:55:48.566Z,22.45
2023-08-02T16:58:14.977Z,22.54
2023-08-02T17:00:41.391Z,22.59
2023-08-02T17:03:07.893Z,22.55
2023-08-02T17:05:34.319Z,22.58
2023-08-02T17:08:00.749Z,22.58
2023-08-02T17:10:27.232Z,22.61
2023-08-02T17:12:53.750Z,22.67
2023-08-02T17:15:21.231Z,22.59
2023-08-02T17:17:47.691Z,22.71
2023-08-02T17:20:14.560Z,22.60
2023-08-02T17:22:40.980Z,22.69
2023-08-02T17:25:07.843Z,22.67
2023-08-02T17:27:34.269Z,22.74
2023-08-02T17:30:00.661Z,22.82
2023-08-02T17:32:27.125Z,22.81
2023-08-02T17:34:53.804Z,22.85
2023-08-02T17:37:20.189Z,22.82
2023-08-02T17:39:52.327Z,22.84
2023-08-02T17:42:18.849Z,22.90
2023-08-02T17:44:45.257Z,22.82
2023-08-02T17:47:11.679Z,22.83
2023-08-02T17:49:38.062Z,22.93
2023-08-02T17:52:04.926Z,22.85
2023-08-02T17:54:31.336Z,22.80
2023-08-02T17:56:57.811Z,22.83
2023-08-02T17:59:26.418Z,22.83
2023-08-02T18:01:53.183Z,22.73
2023-08-02T18:04:23.679Z,22.71
2023-08-02T18:06:51.092Z,22.66
2023-08-02T18:09:17.499Z,22.57
2023-08-02T18:11:44.212Z,22.60
2023-08-02T18:14:11.040Z,22.55
2023-08-02T18:16:37.538Z,22.39
2023-08-02T18:19:04.133Z,22.33
2023-08-02T18:21:30.494Z,22.30
2023-08-02T18:23:56.911Z,22.19
2023-08-02T18:26:23.367Z,22.12
2023-08-02T18:28:50.538Z,22.17
2023-08-02T18:31:17.019Z,22.13
2023-08-02T18:33:43.604Z,22.08
2023-08-02T18:36:12.521Z,22.04
2023-08-02T18:38:40.801Z,22.18
2023-08-02T18:41:16.846Z,21.91
2023-08-02T18:43:43.280Z,21.92
2023-08-02T18:46:09.903Z,21.96
2023-08-02T18:48:36.369Z,21.92
2023-08-02T18:51:03.770Z,21.88
2023-08-02T18:53:33.257Z,21.82
2023-08-02T18:56:00.053Z,21.75
2023-08-02T18:58:27.158Z,21.65
2023-08-02T19:00:53.637Z,21.64
2023-08-02T19:03:20.077Z,21.69
2023-08-02T19:05:46.996Z,21.54
2023-08-02T19:08:16.580Z,21.42
2023-08-02T19:10:42.985Z,21.22
2023-08-02T19:13:15.946Z,21.37
2023-08-02T19:15:43.469Z,21.22
2023-08-02T19:18:11.185Z,21.22
2023-08-02T19:20:37.661Z,21.38
2023-08-02T19:23:04.055Z,21.21
2023-08-02T19:25:31.741Z,21.16
2023-08-02T19:28:02.462Z,21.21
2023-08-02T19:30:29.318Z,21.32
2023-08-02T19:32:55.825Z,21.10
2023-08-02T19:35:27.214Z,21.03
2023-08-02T19:37:54.092Z,21.21
2023-08-02T19:40:21.141Z,21.26
2023-08-02T19:42:48.914Z,21.13
2023-08-02T19:45:15.325Z,21.01
2023-08-02T19:47:41.777Z,21.05
2023-08-02T19:50:08.842Z,20.97
2023-08-02T19:52:35.331Z,20.93
2023-08-02T19:55:04.187Z,20.90
2023-08-02T19:57:42.521Z,21.03
2023-08-02T20:00:13.281Z,20.79
2023-08-02T20:02:39.909Z,20.77
2023-08-02T20:05:15.989Z,20.87
2023-08-02T20:07:42.779Z,20.82
2023-08-02T20:10:41.173Z,20.77
2023-08-02T20:13:15.134Z,20.85
2023-08-02T20:15:41.557Z,20.96
2023-08-02T20:18:10.140Z,20.83
2023-08-02T20:20:36.958Z,20.95
2023-08-02T20:23:06.658Z,20.83
2023-08-02T20:25:33.137Z,20.97
2023-08-02T20:27:59.593Z,20.81
2023-08-02T20:30:26.033Z,20.92
2023-08-02T20:32:54.469Z,20.86
2023-08-02T20:35:21.102Z,20.79
2023-08-02T20:37:52.765Z,20.93
2023-08-02T20:40:19.209Z,21.23
2023-08-02T20:42:45.659Z,20.92
2023-08-02T20:45:15.914Z,21.07
2023-08-02T20:47:42.352Z,20.91
2023-08-02T20:50:13.432Z,20.76
2023-08-02T20:52:43.483Z,20.89
2023-08-02T20:55:10.776Z,20.87
2023-08-02T20:57:40.441Z,20.84
2023-08-02T21:00:15.282Z,20.79
2023-08-02T21:02:45.684Z,20.99
2023-08-02T21:05:12.231Z,20.81
2023-08-02T21:07:38.687Z,20.76
2023-08-02T21:10:13.547Z,20.68
2023-08-02T21:12:46.961Z,20.61
2023-08-02T21:15:13.806Z,20.65
2023-08-02T21:17:43.893Z,20.66
2023-08-02T21:20:33.245Z,20.65
2023-08-02T21:23:04.477Z,20.66
2023-08-02T21:25:32.430Z,20.68
2023-08-02T21:27:58.817Z,20.63
2023-08-02T21:30:25.428Z,20.65
2023-08-02T21:32:51.850Z,20.64
2023-08-02T21:35:20.955Z,20.75
2023-08-02T21:37:47.404Z,20.85
2023-08-02T21:40:15.868Z,20.76
2023-08-02T21:42:43.628Z,20.61
2023-08-02T21:45:13.217Z,20.64
2023-08-02T21:47:42.474Z,20.62
2023-08-02T21:50:10.048Z,20.64
2023-08-02T21:52:36.528Z,20.73
2023-08-02T21:55:04.573Z,20.58
2023-08-02T21:57:34.439Z,20.54
2023-08-02T22:00:01.577Z,20.63
2023-08-02T22:02:35.073Z,20.61
2023-08-02T22:05:01.728Z,20.73
2023-08-02T22:07:28.123Z,20.69
2023-08-02T22:09:55.527Z,20.68
2023-08-02T22:12:22.287Z,20.66
2023-08-02T22:14:48.898Z,20.70
2023-08-02T22:17:22.487Z,20.75
2023-08-02T22:19:49.010Z,20.70
2023-08-02T22:22:15.544Z,20.74
2023-08-02T22:24:41.947Z,20.68
2023-08-02T22:27:08.370Z,20.62
2023-08-02T22:29:36.809Z,20.68
2023-08-02T22:32:07.747Z,20.55
2023-08-02T22:34:34.172Z,20.54
2023-08-02T22:37:00.558Z,20.64
2023-08-02T22:39:26.927Z,20.55
2023-08-02T22:41:53.300Z,20.57
2023-08-02T22:44:19.832Z,20.57
2023-08-02T22:46:47.403Z,20.54
2023-08-02T22:50:27.322Z,20.60
2023-08-02T22:52:00.375Z,20.68
2023-08-02T22:54:27.458Z,20.73
2023-08-02T22:56:53.840Z,20.75
2023-08-02T22:59:20.383Z,20.66
2023-08-02T23:01:48.988Z,20.66
2023-08-02T23:04:17.243Z,20.67
2023-08-02T23:06:43.869Z,20.74
2023-08-02T23:09:13.929Z,20.75
2023-08-02T23:11:43.237Z,20.79
2023-08-02T23:14:14.323Z,20.78
2023-08-02T23:16:40.930Z,20.80
2023-08-02T23:19:17.693Z,20.78
2023-08-02T23:21:45.399Z,20.68
2023-08-02T23:24:13.312Z,20.74
2023-08-02T23:26:39.922Z,20.63
2023-08-02T23:29:06.564Z,20.70
2023-08-02T23:31:33.071Z,20.75
2023-08-02T23:34:00.679Z,20.73
2023-08-02T23:36:27.341Z,20.69
2023-08-02T23:38:53.732Z,20.60
2023-08-02T23:41:20.223Z,20.59
2023-08-02T23:43:46.635Z,20.65
2023-08-02T23:46:13.143Z,20.63
2023-08-02T23:48:39.695Z,20.75
2023-08-02T23:51:06.104Z,20.61
2023-08-02T23:53:32.538Z,20.54
2023-08-02T23:55:59.012Z,20.54
2023-08-02T23:58:25.489Z,20.50
